sensor_id;sensor_type;location;lat;lon;timestamp;P1;durP1;ratioP1;P2;durP2;ratioP2
33150;SDS011;19508;42.578;23.416;2023-07-22T00:01:10;14.07;;;4.97;;
33150;SDS011;19508;42.578;23.416;2023-07-22T00:03:36;14.98;;;4.68;;
33150;SDS011;19508;42.578;23.416;2023-07-22T00:06:02;11.98;;;4.53;;
33150;SDS011;19508;42.578;23.416;2023-07-22T00:08:34;17.92;;;4.65;;
33150;SDS011;19508;42.578;23.416;2023-07-22T00:11:01;9.15;;;4.45;;
33150;SDS011;19508;42.578;23.416;2023-07-22T00:13:26;9.55;;;4.05;;
33150;SDS011;19508;42.578;23.416;2023-07-22T00:15:55;13.65;;;4.50;;
33150;SDS011;19508;42.578;23.416;2023-07-22T00:18:21;14.85;;;4.93;;
33150;SDS011;19508;42.578;23.416;2023-07-22T00:20:48;9.50;;;4.15;;
33150;SDS011;19508;42.578;23.416;2023-07-22T00:23:14;11.43;;;4.18;;
33150;SDS011;19508;42.578;23.416;2023-07-22T00:25:40;14.63;;;4.68;;
33150;SDS011;19508;42.578;23.416;2023-07-22T00:28:07;14.57;;;4.78;;
33150;SDS011;19508;42.578;23.416;2023-07-22T00:30:33;12.95;;;4.70;;
33150;SDS011;19508;42.578;23.416;2023-07-22T00:32:59;12.35;;;4.85;;
33150;SDS011;19508;42.578;23.416;2023-07-22T00:35:25;14.10;;;4.70;;
33150;SDS011;19508;42.578;23.416;2023-07-22T00:37:51;12.02;;;4.20;;
33150;SDS011;19508;42.578;23.416;2023-07-22T00:40:16;14.25;;;4.97;;
33150;SDS011;19508;42.578;23.416;2023-07-22T00:42:42;17.55;;;5.32;;
33150;SDS011;19508;42.578;23.416;2023-07-22T00:45:08;16.20;;;5.00;;
33150;SDS011;19508;42.578;23.416;2023-07-22T00:47:34;11.32;;;5.10;;
33150;SDS011;19508;42.578;23.416;2023-07-22T00:50:01;13.77;;;5.20;;
33150;SDS011;19508;42.578;23.416;2023-07-22T00:52:28;13.85;;;5.15;;
33150;SDS011;19508;42.578;23.416;2023-07-22T00:54:54;17.30;;;4.68;;
33150;SDS011;19508;42.578;23.416;2023-07-22T00:57:20;14.38;;;4.47;;
33150;SDS011;19508;42.578;23.416;2023-07-22T00:59:48;8.07;;;4.40;;
33150;SDS011;19508;42.578;23.416;2023-07-22T01:02:14;8.90;;;5.00;;
33150;SDS011;19508;42.578;23.416;2023-07-22T01:04:39;13.80;;;4.85;;
33150;SDS011;19508;42.578;23.416;2023-07-22T01:07:05;19.40;;;4.93;;
33150;SDS011;19508;42.578;23.416;2023-07-22T01:09:35;11.50;;;4.75;;
33150;SDS011;19508;42.578;23.416;2023-07-22T01:12:02;13.35;;;5.07;;
33150;SDS011;19508;42.578;23.416;2023-07-22T01:14:28;11.55;;;5.15;;
33150;SDS011;19508;42.578;23.416;2023-07-22T01:16:53;12.73;;;5.45;;
33150;SDS011;19508;42.578;23.416;2023-07-22T01:19:19;8.73;;;4.57;;
33150;SDS011;19508;42.578;23.416;2023-07-22T01:21:45;9.10;;;4.53;;
33150;SDS011;19508;42.578;23.416;2023-07-22T01:24:11;9.57;;;4.80;;
33150;SDS011;19508;42.578;23.416;2023-07-22T01:26:37;10.15;;;4.63;;
33150;SDS011;19508;42.578;23.416;2023-07-22T01:29:04;12.70;;;4.90;;
33150;SDS011;19508;42.578;23.416;2023-07-22T01:31:30;9.07;;;4.88;;
33150;SDS011;19508;42.578;23.416;2023-07-22T01:33:56;13.68;;;5.38;;
33150;SDS011;19508;42.578;23.416;2023-07-22T01:36:23;14.73;;;5.22;;
33150;SDS011;19508;42.578;23.416;2023-07-22T01:38:49;15.88;;;5.45;;
33150;SDS011;19508;42.578;23.416;2023-07-22T01:41:14;15.07;;;5.25;;
33150;SDS011;19508;42.578;23.416;2023-07-22T01:43:39;15.02;;;5.32;;
33150;SDS011;19508;42.578;23.416;2023-07-22T01:46:05;12.10;;;4.82;;
33150;SDS011;19508;42.578;23.416;2023-07-22T01:48:30;10.93;;;4.93;;
33150;SDS011;19508;42.578;23.416;2023-07-22T01:50:55;13.48;;;4.90;;
33150;SDS011;19508;42.578;23.416;2023-07-22T01:53:21;15.00;;;4.63;;
33150;SDS011;19508;42.578;23.416;2023-07-22T01:55:46;10.15;;;5.05;;
33150;SDS011;19508;42.578;23.416;2023-07-22T01:58:12;12.13;;;4.28;;
33150;SDS011;19508;42.578;23.416;2023-07-22T02:00:37;16.58;;;4.90;;
33150;SDS011;19508;42.578;23.416;2023-07-22T02:03:03;10.23;;;5.03;;
33150;SDS011;19508;42.578;23.416;2023-07-22T02:05:28;8.90;;;5.05;;
33150;SDS011;19508;42.578;23.416;2023-07-22T02:07:55;11.50;;;5.00;;
33150;SDS011;19508;42.578;23.416;2023-07-22T02:10:21;7.85;;;4.47;;
33150;SDS011;19508;42.578;23.416;2023-07-22T02:12:46;14.52;;;5.68;;
33150;SDS011;19508;42.578;23.416;2023-07-22T02:15:12;11.30;;;4.88;;
33150;SDS011;19508;42.578;23.416;2023-07-22T02:17:37;7.18;;;4.50;;
33150;SDS011;19508;42.578;23.416;2023-07-22T02:20:03;11.27;;;4.70;;
33150;SDS011;19508;42.578;23.416;2023-07-22T02:22:29;17.48;;;5.43;;
33150;SDS011;19508;42.578;23.416;2023-07-22T02:24:55;20.15;;;6.07;;
33150;SDS011;19508;42.578;23.416;2023-07-22T02:27:20;9.52;;;4.82;;
33150;SDS011;19508;42.578;23.416;2023-07-22T02:29:45;25.73;;;5.35;;
33150;SDS011;19508;42.578;23.416;2023-07-22T02:32:13;14.43;;;5.95;;
33150;SDS011;19508;42.578;23.416;2023-07-22T02:34:38;11.93;;;5.35;;
33150;SDS011;19508;42.578;23.416;2023-07-22T02:37:04;13.35;;;5.13;;
33150;SDS011;19508;42.578;23.416;2023-07-22T02:39:29;14.63;;;5.93;;
33150;SDS011;19508;42.578;23.416;2023-07-22T02:41:55;12.02;;;5.28;;
33150;SDS011;19508;42.578;23.416;2023-07-22T02:44:20;15.88;;;5.40;;
33150;SDS011;19508;42.578;23.416;2023-07-22T02:46:46;13.60;;;4.68;;
33150;SDS011;19508;42.578;23.416;2023-07-22T02:49:11;11.65;;;5.45;;
33150;SDS011;19508;42.578;23.416;2023-07-22T02:51:36;9.07;;;5.45;;
33150;SDS011;19508;42.578;23.416;2023-07-22T02:54:02;11.00;;;5.60;;
33150;SDS011;19508;42.578;23.416;2023-07-22T02:56:28;11.48;;;4.80;;
33150;SDS011;19508;42.578;23.416;2023-07-22T02:58:54;10.82;;;4.90;;
33150;SDS011;19508;42.578;23.416;2023-07-22T03:01:19;13.35;;;5.78;;
33150;SDS011;19508;42.578;23.416;2023-07-22T03:03:45;16.85;;;5.85;;
33150;SDS011;19508;42.578;23.416;2023-07-22T03:06:10;13.75;;;5.88;;
33150;SDS011;19508;42.578;23.416;2023-07-22T03:08:36;10.23;;;5.78;;
33150;SDS011;19508;42.578;23.416;2023-07-22T03:11:01;14.75;;;5.30;;
33150;SDS011;19508;42.578;23.416;2023-07-22T03:13:27;16.42;;;6.18;;
33150;SDS011;19508;42.578;23.416;2023-07-22T03:15:55;12.32;;;5.13;;
33150;SDS011;19508;42.578;23.416;2023-07-22T03:18:21;11.65;;;5.10;;
33150;SDS011;19508;42.578;23.416;2023-07-22T03:20:47;12.30;;;5.50;;
33150;SDS011;19508;42.578;23.416;2023-07-22T03:23:12;17.52;;;5.82;;
33150;SDS011;19508;42.578;23.416;2023-07-22T03:25:38;11.70;;;5.75;;
33150;SDS011;19508;42.578;23.416;2023-07-22T03:28:04;21.95;;;6.00;;
33150;SDS011;19508;42.578;23.416;2023-07-22T03:30:31;13.25;;;6.00;;
33150;SDS011;19508;42.578;23.416;2023-07-22T03:32:56;11.23;;;5.10;;
33150;SDS011;19508;42.578;23.416;2023-07-22T03:35:22;13.60;;;6.28;;
33150;SDS011;19508;42.578;23.416;2023-07-22T03:37:47;13.98;;;5.60;;
33150;SDS011;19508;42.578;23.416;2023-07-22T03:40:13;8.13;;;5.25;;
33150;SDS011;19508;42.578;23.416;2023-07-22T03:42:52;11.45;;;5.75;;
33150;SDS011;19508;42.578;23.416;2023-07-22T03:45:19;10.20;;;5.22;;
33150;SDS011;19508;42.578;23.416;2023-07-22T03:47:46;14.80;;;5.80;;
33150;SDS011;19508;42.578;23.416;2023-07-22T03:50:15;12.43;;;5.68;;
33150;SDS011;19508;42.578;23.416;2023-07-22T03:52:40;11.43;;;5.82;;
33150;SDS011;19508;42.578;23.416;2023-07-22T03:55:05;10.98;;;5.70;;
33150;SDS011;19508;42.578;23.416;2023-07-22T03:57:31;18.13;;;5.60;;
33150;SDS011;19508;42.578;23.416;2023-07-22T03:59:57;12.50;;;5.57;;
33150;SDS011;19508;42.578;23.416;2023-07-22T04:02:23;12.98;;;6.05;;
33150;SDS011;19508;42.578;23.416;2023-07-22T04:04:49;17.67;;;6.00;;
33150;SDS011;19508;42.578;23.416;2023-07-22T04:07:21;15.00;;;5.82;;
33150;SDS011;19508;42.578;23.416;2023-07-22T04:09:47;21.92;;;5.82;;
33150;SDS011;19508;42.578;23.416;2023-07-22T04:12:13;8.75;;;5.35;;
33150;SDS011;19508;42.578;23.416;2023-07-22T04:14:38;11.23;;;5.90;;
33150;SDS011;19508;42.578;23.416;2023-07-22T04:17:04;13.95;;;5.63;;
33150;SDS011;19508;42.578;23.416;2023-07-22T04:19:30;18.15;;;6.15;;
33150;SDS011;19508;42.578;23.416;2023-07-22T04:21:55;12.30;;;5.70;;
33150;SDS011;19508;42.578;23.416;2023-07-22T04:24:21;14.82;;;5.72;;
33150;SDS011;19508;42.578;23.416;2023-07-22T04:26:47;14.05;;;5.55;;
33150;SDS011;19508;42.578;23.416;2023-07-22T04:29:12;11.77;;;5.75;;
33150;SDS011;19508;42.578;23.416;2023-07-22T04:31:38;13.60;;;5.50;;
33150;SDS011;19508;42.578;23.416;2023-07-22T04:34:04;16.35;;;5.38;;
33150;SDS011;19508;42.578;23.416;2023-07-22T04:36:30;16.38;;;5.30;;
33150;SDS011;19508;42.578;23.416;2023-07-22T04:38:56;16.33;;;6.40;;
33150;SDS011;19508;42.578;23.416;2023-07-22T04:41:21;18.20;;;5.32;;
33150;SDS011;19508;42.578;23.416;2023-07-22T04:43:47;15.35;;;5.57;;
33150;SDS011;19508;42.578;23.416;2023-07-22T04:46:12;18.65;;;5.15;;
33150;SDS011;19508;42.578;23.416;2023-07-22T04:48:38;11.93;;;5.78;;
33150;SDS011;19508;42.578;23.416;2023-07-22T04:51:03;15.55;;;6.05;;
33150;SDS011;19508;42.578;23.416;2023-07-22T04:53:29;14.68;;;5.70;;
33150;SDS011;19508;42.578;23.416;2023-07-22T04:55:54;11.25;;;5.43;;
33150;SDS011;19508;42.578;23.416;2023-07-22T04:58:20;12.88;;;5.55;;
33150;SDS011;19508;42.578;23.416;2023-07-22T05:00:46;10.13;;;5.25;;
33150;SDS011;19508;42.578;23.416;2023-07-22T05:03:11;18.58;;;5.45;;
33150;SDS011;19508;42.578;23.416;2023-07-22T05:05:37;14.18;;;5.35;;
33150;SDS011;19508;42.578;23.416;2023-07-22T05:08:02;21.52;;;5.43;;
33150;SDS011;19508;42.578;23.416;2023-07-22T05:10:28;13.05;;;5.68;;
33150;SDS011;19508;42.578;23.416;2023-07-22T05:12:54;20.30;;;5.45;;
33150;SDS011;19508;42.578;23.416;2023-07-22T05:15:19;11.35;;;5.15;;
33150;SDS011;19508;42.578;23.416;2023-07-22T05:17:45;9.65;;;5.13;;
33150;SDS011;19508;42.578;23.416;2023-07-22T05:20:11;10.48;;;5.13;;
33150;SDS011;19508;42.578;23.416;2023-07-22T05:22:38;16.20;;;4.90;;
33150;SDS011;19508;42.578;23.416;2023-07-22T05:25:05;18.75;;;5.25;;
33150;SDS011;19508;42.578;23.416;2023-07-22T05:27:31;13.57;;;4.82;;
33150;SDS011;19508;42.578;23.416;2023-07-22T05:29:56;16.77;;;4.40;;
33150;SDS011;19508;42.578;23.416;2023-07-22T05:32:22;9.93;;;4.75;;
33150;SDS011;19508;42.578;23.416;2023-07-22T05:34:47;24.48;;;5.13;;
33150;SDS011;19508;42.578;23.416;2023-07-22T05:37:13;8.30;;;4.03;;
33150;SDS011;19508;42.578;23.416;2023-07-22T05:39:38;12.45;;;5.25;;
33150;SDS011;19508;42.578;23.416;2023-07-22T05:42:03;8.88;;;4.10;;
33150;SDS011;19508;42.578;23.416;2023-07-22T05:44:30;12.05;;;5.00;;
33150;SDS011;19508;42.578;23.416;2023-07-22T05:46:55;8.10;;;4.75;;
33150;SDS011;19508;42.578;23.416;2023-07-22T05:49:20;9.20;;;4.60;;
33150;SDS011;19508;42.578;23.416;2023-07-22T05:51:46;15.55;;;4.93;;
33150;SDS011;19508;42.578;23.416;2023-07-22T05:54:11;16.13;;;4.57;;
33150;SDS011;19508;42.578;23.416;2023-07-22T05:56:37;18.05;;;5.60;;
33150;SDS011;19508;42.578;23.416;2023-07-22T05:59:02;18.42;;;5.63;;
33150;SDS011;19508;42.578;23.416;2023-07-22T06:01:27;11.48;;;4.85;;
33150;SDS011;19508;42.578;23.416;2023-07-22T06:03:53;13.93;;;4.95;;
33150;SDS011;19508;42.578;23.416;2023-07-22T06:06:19;17.10;;;4.75;;
33150;SDS011;19508;42.578;23.416;2023-07-22T06:08:44;17.17;;;5.13;;
33150;SDS011;19508;42.578;23.416;2023-07-22T06:11:09;10.43;;;4.88;;
33150;SDS011;19508;42.578;23.416;2023-07-22T06:13:35;14.95;;;4.93;;
33150;SDS011;19508;42.578;23.416;2023-07-22T06:16:00;13.93;;;5.18;;
33150;SDS011;19508;42.578;23.416;2023-07-22T06:18:26;9.98;;;4.85;;
33150;SDS011;19508;42.578;23.416;2023-07-22T06:20:51;16.75;;;4.90;;
33150;SDS011;19508;42.578;23.416;2023-07-22T06:23:17;12.18;;;5.45;;
33150;SDS011;19508;42.578;23.416;2023-07-22T06:25:42;14.20;;;5.22;;
33150;SDS011;19508;42.578;23.416;2023-07-22T06:28:08;15.18;;;5.10;;
33150;SDS011;19508;42.578;23.416;2023-07-22T06:30:33;8.93;;;4.90;;
33150;SDS011;19508;42.578;23.416;2023-07-22T06:32:59;9.88;;;5.00;;
33150;SDS011;19508;42.578;23.416;2023-07-22T06:35:24;10.23;;;5.45;;
33150;SDS011;19508;42.578;23.416;2023-07-22T06:37:49;10.60;;;5.25;;
33150;SDS011;19508;42.578;23.416;2023-07-22T06:40:15;11.02;;;5.10;;
33150;SDS011;19508;42.578;23.416;2023-07-22T06:42:40;19.95;;;5.47;;
33150;SDS011;19508;42.578;23.416;2023-07-22T06:45:06;9.88;;;4.88;;
33150;SDS011;19508;42.578;23.416;2023-07-22T06:47:32;14.93;;;5.38;;
33150;SDS011;19508;42.578;23.416;2023-07-22T06:49:57;9.02;;;5.25;;
33150;SDS011;19508;42.578;23.416;2023-07-22T06:52:23;10.65;;;4.43;;
33150;SDS011;19508;42.578;23.416;2023-07-22T06:54:48;13.43;;;5.03;;
33150;SDS011;19508;42.578;23.416;2023-07-22T06:57:14;12.70;;;5.22;;
33150;SDS011;19508;42.578;23.416;2023-07-22T06:59:40;8.98;;;4.70;;
33150;SDS011;19508;42.578;23.416;2023-07-22T07:02:05;10.98;;;4.63;;
33150;SDS011;19508;42.578;23.416;2023-07-22T07:04:31;19.38;;;4.55;;
33150;SDS011;19508;42.578;23.416;2023-07-22T07:06:56;13.45;;;4.65;;
33150;SDS011;19508;42.578;23.416;2023-07-22T07:09:21;14.20;;;5.63;;
33150;SDS011;19508;42.578;23.416;2023-07-22T07:11:47;15.93;;;5.15;;
33150;SDS011;19508;42.578;23.416;2023-07-22T07:14:12;17.25;;;5.30;;
33150;SDS011;19508;42.578;23.416;2023-07-22T07:16:38;14.80;;;5.00;;
33150;SDS011;19508;42.578;23.416;2023-07-22T07:19:03;23.45;;;6.18;;
33150;SDS011;19508;42.578;23.416;2023-07-22T07:21:29;14.10;;;5.47;;
33150;SDS011;19508;42.578;23.416;2023-07-22T07:23:54;13.55;;;5.68;;
33150;SDS011;19508;42.578;23.416;2023-07-22T07:26:20;17.50;;;5.55;;
33150;SDS011;19508;42.578;23.416;2023-07-22T07:28:47;18.30;;;5.28;;
33150;SDS011;19508;42.578;23.416;2023-07-22T07:31:13;22.23;;;4.78;;
33150;SDS011;19508;42.578;23.416;2023-07-22T07:33:38;12.23;;;5.10;;
33150;SDS011;19508;42.578;23.416;2023-07-22T07:36:04;13.98;;;5.22;;
33150;SDS011;19508;42.578;23.416;2023-07-22T07:38:30;15.13;;;5.68;;
33150;SDS011;19508;42.578;23.416;2023-07-22T07:40:57;24.95;;;5.85;;
33150;SDS011;19508;42.578;23.416;2023-07-22T07:43:24;19.98;;;6.10;;
33150;SDS011;19508;42.578;23.416;2023-07-22T07:45:49;13.95;;;5.40;;
33150;SDS011;19508;42.578;23.416;2023-07-22T07:48:15;27.20;;;5.95;;
33150;SDS011;19508;42.578;23.416;2023-07-22T07:50:41;21.55;;;6.55;;
33150;SDS011;19508;42.578;23.416;2023-07-22T07:53:07;14.68;;;6.15;;
33150;SDS011;19508;42.578;23.416;2023-07-22T07:55:33;13.30;;;6.07;;
33150;SDS011;19508;42.578;23.416;2023-07-22T07:57:58;14.60;;;5.70;;
33150;SDS011;19508;42.578;23.416;2023-07-22T08:00:24;18.85;;;5.65;;
33150;SDS011;19508;42.578;23.416;2023-07-22T08:02:49;12.15;;;5.10;;
33150;SDS011;19508;42.578;23.416;2023-07-22T08:05:15;20.45;;;6.18;;
33150;SDS011;19508;42.578;23.416;2023-07-22T08:07:41;17.40;;;5.82;;
33150;SDS011;19508;42.578;23.416;2023-07-22T08:10:06;21.55;;;6.60;;
33150;SDS011;19508;42.578;23.416;2023-07-22T08:12:32;27.20;;;6.90;;
33150;SDS011;19508;42.578;23.416;2023-07-22T08:14:58;16.88;;;5.57;;
33150;SDS011;19508;42.578;23.416;2023-07-22T08:17:24;21.77;;;6.15;;
33150;SDS011;19508;42.578;23.416;2023-07-22T08:19:51;20.08;;;7.03;;
33150;SDS011;19508;42.578;23.416;2023-07-22T08:22:17;22.05;;;6.90;;
33150;SDS011;19508;42.578;23.416;2023-07-22T08:24:43;17.30;;;5.57;;
33150;SDS011;19508;42.578;23.416;2023-07-22T08:27:08;20.23;;;6.32;;
33150;SDS011;19508;42.578;23.416;2023-07-22T08:29:34;16.15;;;6.30;;
33150;SDS011;19508;42.578;23.416;2023-07-22T08:31:59;23.88;;;7.10;;
33150;SDS011;19508;42.578;23.416;2023-07-22T08:34:27;17.70;;;6.15;;
33150;SDS011;19508;42.578;23.416;2023-07-22T08:36:53;22.88;;;6.90;;
33150;SDS011;19508;42.578;23.416;2023-07-22T08:39:18;19.40;;;6.05;;
33150;SDS011;19508;42.578;23.416;2023-07-22T08:41:46;26.45;;;6.40;;
33150;SDS011;19508;42.578;23.416;2023-07-22T08:44:14;20.67;;;5.87;;
33150;SDS011;19508;42.578;23.416;2023-07-22T08:46:43;22.40;;;6.97;;
33150;SDS011;19508;42.578;23.416;2023-07-22T08:49:11;12.10;;;5.70;;
33150;SDS011;19508;42.578;23.416;2023-07-22T08:51:36;13.90;;;6.15;;
33150;SDS011;19508;42.578;23.416;2023-07-22T08:54:02;17.95;;;5.85;;
33150;SDS011;19508;42.578;23.416;2023-07-22T08:56:28;15.88;;;5.88;;
33150;SDS011;19508;42.578;23.416;2023-07-22T08:58:54;24.08;;;6.68;;
33150;SDS011;19508;42.578;23.416;2023-07-22T09:01:21;21.50;;;6.18;;
33150;SDS011;19508;42.578;23.416;2023-07-22T09:03:48;21.70;;;6.28;;
33150;SDS011;19508;42.578;23.416;2023-07-22T09:06:16;19.00;;;5.22;;
33150;SDS011;19508;42.578;23.416;2023-07-22T09:08:42;20.13;;;6.28;;
33150;SDS011;19508;42.578;23.416;2023-07-22T09:11:08;32.75;;;6.85;;
33150;SDS011;19508;42.578;23.416;2023-07-22T09:13:34;18.42;;;6.10;;
33150;SDS011;19508;42.578;23.416;2023-07-22T09:16:01;21.52;;;6.18;;
33150;SDS011;19508;42.578;23.416;2023-07-22T09:18:27;18.45;;;5.53;;
33150;SDS011;19508;42.578;23.416;2023-07-22T09:20:53;25.73;;;6.00;;
33150;SDS011;19508;42.578;23.416;2023-07-22T09:23:18;19.90;;;6.20;;
33150;SDS011;19508;42.578;23.416;2023-07-22T09:26:07;22.00;;;6.10;;
33150;SDS011;19508;42.578;23.416;2023-07-22T09:28:53;21.07;;;6.03;;
33150;SDS011;19508;42.578;23.416;2023-07-22T09:31:23;28.70;;;6.03;;
33150;SDS011;19508;42.578;23.416;2023-07-22T09:33:49;21.13;;;5.97;;
33150;SDS011;19508;42.578;23.416;2023-07-22T09:36:16;19.58;;;6.22;;
33150;SDS011;19508;42.578;23.416;2023-07-22T09:38:41;23.98;;;6.00;;
33150;SDS011;19508;42.578;23.416;2023-07-22T09:41:07;16.95;;;5.80;;
33150;SDS011;19508;42.578;23.416;2023-07-22T09:43:37;30.58;;;6.53;;
33150;SDS011;19508;42.578;23.416;2023-07-22T09:46:10;21.08;;;6.20;;
33150;SDS011;19508;42.578;23.416;2023-07-22T09:48:42;15.27;;;5.47;;
33150;SDS011;19508;42.578;23.416;2023-07-22T09:51:16;32.22;;;6.43;;
33150;SDS011;19508;42.578;23.416;2023-07-22T09:53:48;16.58;;;5.63;;
33150;SDS011;19508;42.578;23.416;2023-07-22T09:56:25;20.33;;;6.63;;
33150;SDS011;19508;42.578;23.416;2023-07-22T09:58:51;25.10;;;5.75;;
33150;SDS011;19508;42.578;23.416;2023-07-22T10:01:22;16.90;;;6.80;;
33150;SDS011;19508;42.578;23.416;2023-07-22T10:03:53;21.35;;;5.95;;
33150;SDS011;19508;42.578;23.416;2023-07-22T10:06:20;17.30;;;6.15;;
33150;SDS011;19508;42.578;23.416;2023-07-22T10:08:56;22.50;;;6.03;;
33150;SDS011;19508;42.578;23.416;2023-07-22T10:11:22;20.33;;;5.93;;
33150;SDS011;19508;42.578;23.416;2023-07-22T10:13:50;21.67;;;5.70;;
33150;SDS011;19508;42.578;23.416;2023-07-22T10:16:18;31.73;;;7.10;;
33150;SDS011;19508;42.578;23.416;2023-07-22T10:18:43;32.15;;;6.28;;
33150;SDS011;19508;42.578;23.416;2023-07-22T10:21:11;17.98;;;5.78;;
33150;SDS011;19508;42.578;23.416;2023-07-22T10:23:38;16.02;;;6.00;;
33150;SDS011;19508;42.578;23.416;2023-07-22T10:26:03;22.10;;;6.47;;
33150;SDS011;19508;42.578;23.416;2023-07-22T10:28:30;21.17;;;6.35;;
33150;SDS011;19508;42.578;23.416;2023-07-22T10:30:57;22.80;;;6.30;;
33150;SDS011;19508;42.578;23.416;2023-07-22T10:33:24;33.65;;;6.18;;
33150;SDS011;19508;42.578;23.416;2023-07-22T10:38:29;24.05;;;5.65;;
33150;SDS011;19508;42.578;23.416;2023-07-22T10:40:55;35.28;;;7.28;;
33150;SDS011;19508;42.578;23.416;2023-07-22T10:43:29;26.45;;;6.13;;
33150;SDS011;19508;42.578;23.416;2023-07-22T10:46:14;21.40;;;6.35;;
33150;SDS011;19508;42.578;23.416;2023-07-22T10:48:41;31.35;;;6.97;;
33150;SDS011;19508;42.578;23.416;2023-07-22T10:51:09;26.85;;;6.32;;
33150;SDS011;19508;42.578;23.416;2023-07-22T10:53:54;26.55;;;6.15;;
33150;SDS011;19508;42.578;23.416;2023-07-22T10:56:20;34.03;;;6.70;;
33150;SDS011;19508;42.578;23.416;2023-07-22T11:12:04;31.38;;;7.63;;
33150;SDS011;19508;42.578;23.416;2023-07-22T11:17:14;32.67;;;6.05;;
33150;SDS011;19508;42.578;23.416;2023-07-22T11:19:40;28.10;;;6.18;;
33150;SDS011;19508;42.578;23.416;2023-07-22T11:22:06;29.35;;;6.60;;
33150;SDS011;19508;42.578;23.416;2023-07-22T11:24:35;42.92;;;6.00;;
33150;SDS011;19508;42.578;23.416;2023-07-22T11:27:05;40.97;;;6.45;;
33150;SDS011;19508;42.578;23.416;2023-07-22T11:29:34;26.50;;;6.38;;
33150;SDS011;19508;42.578;23.416;2023-07-22T11:32:00;33.95;;;6.10;;
33150;SDS011;19508;42.578;23.416;2023-07-22T11:34:25;38.60;;;6.45;;
33150;SDS011;19508;42.578;23.416;2023-07-22T11:36:52;29.27;;;5.57;;
33150;SDS011;19508;42.578;23.416;2023-07-22T11:39:19;38.03;;;5.55;;
33150;SDS011;19508;42.578;23.416;2023-07-22T11:41:46;37.38;;;5.80;;
33150;SDS011;19508;42.578;23.416;2023-07-22T11:44:13;42.88;;;7.07;;
33150;SDS011;19508;42.578;23.416;2023-07-22T11:49:32;39.05;;;6.97;;
33150;SDS011;19508;42.578;23.416;2023-07-22T11:52:03;40.40;;;5.95;;
33150;SDS011;19508;42.578;23.416;2023-07-22T11:54:33;38.50;;;7.38;;
33150;SDS011;19508;42.578;23.416;2023-07-22T11:59:49;58.72;;;6.90;;
33150;SDS011;19508;42.578;23.416;2023-07-22T12:02:20;34.30;;;5.63;;
33150;SDS011;19508;42.578;23.416;2023-07-22T12:04:57;30.65;;;6.68;;
33150;SDS011;19508;42.578;23.416;2023-07-22T12:07:28;23.92;;;5.05;;
33150;SDS011;19508;42.578;23.416;2023-07-22T12:09:55;31.42;;;6.28;;
33150;SDS011;19508;42.578;23.416;2023-07-22T12:12:35;34.05;;;5.40;;
33150;SDS011;19508;42.578;23.416;2023-07-22T12:15:12;36.67;;;6.57;;
33150;SDS011;19508;42.578;23.416;2023-07-22T12:17:47;42.80;;;6.65;;
33150;SDS011;19508;42.578;23.416;2023-07-22T12:20:13;41.00;;;5.85;;
33150;SDS011;19508;42.578;23.416;2023-07-22T12:22:38;32.92;;;6.85;;
33150;SDS011;19508;42.578;23.416;2023-07-22T12:25:05;45.92;;;7.07;;
33150;SDS011;19508;42.578;23.416;2023-07-22T12:27:31;41.70;;;6.07;;
33150;SDS011;19508;42.578;23.416;2023-07-22T12:29:56;35.25;;;6.55;;
33150;SDS011;19508;42.578;23.416;2023-07-22T12:32:21;36.38;;;6.32;;
33150;SDS011;19508;42.578;23.416;2023-07-22T12:34:47;46.97;;;6.57;;
33150;SDS011;19508;42.578;23.416;2023-07-22T12:37:12;34.90;;;6.07;;
33150;SDS011;19508;42.578;23.416;2023-07-22T12:39:37;36.78;;;5.85;;
33150;SDS011;19508;42.578;23.416;2023-07-22T12:42:03;55.35;;;6.38;;
33150;SDS011;19508;42.578;23.416;2023-07-22T12:44:28;25.73;;;5.45;;
33150;SDS011;19508;42.578;23.416;2023-07-22T12:46:55;34.63;;;6.03;;
33150;SDS011;19508;42.578;23.416;2023-07-22T12:49:20;31.88;;;6.13;;
33150;SDS011;19508;42.578;23.416;2023-07-22T12:51:45;41.08;;;6.15;;
33150;SDS011;19508;42.578;23.416;2023-07-22T12:54:11;35.72;;;6.07;;
33150;SDS011;19508;42.578;23.416;2023-07-22T12:56:36;31.95;;;6.05;;
33150;SDS011;19508;42.578;23.416;2023-07-22T12:59:02;37.20;;;6.10;;
33150;SDS011;19508;42.578;23.416;2023-07-22T13:01:27;35.78;;;5.80;;
33150;SDS011;19508;42.578;23.416;2023-07-22T13:03:52;43.75;;;5.88;;
33150;SDS011;19508;42.578;23.416;2023-07-22T13:06:18;22.88;;;5.47;;
33150;SDS011;19508;42.578;23.416;2023-07-22T13:08:43;35.15;;;6.13;;
33150;SDS011;19508;42.578;23.416;2023-07-22T13:11:09;39.58;;;6.28;;
33150;SDS011;19508;42.578;23.416;2023-07-22T13:13:34;33.05;;;6.45;;
33150;SDS011;19508;42.578;23.416;2023-07-22T13:15:59;34.90;;;6.00;;
33150;SDS011;19508;42.578;23.416;2023-07-22T13:18:25;47.57;;;6.47;;
33150;SDS011;19508;42.578;23.416;2023-07-22T13:20:50;28.27;;;5.90;;
33150;SDS011;19508;42.578;23.416;2023-07-22T13:23:16;31.77;;;5.47;;
33150;SDS011;19508;42.578;23.416;2023-07-22T13:25:41;44.13;;;6.50;;
33150;SDS011;19508;42.578;23.416;2023-07-22T13:28:06;36.95;;;6.28;;
33150;SDS011;19508;42.578;23.416;2023-07-22T13:30:32;39.78;;;5.97;;
33150;SDS011;19508;42.578;23.416;2023-07-22T13:32:57;37.97;;;7.38;;
33150;SDS011;19508;42.578;23.416;2023-07-22T13:35:23;46.05;;;6.43;;
33150;SDS011;19508;42.578;23.416;2023-07-22T13:37:48;46.85;;;6.65;;
33150;SDS011;19508;42.578;23.416;2023-07-22T13:40:14;41.90;;;6.47;;
33150;SDS011;19508;42.578;23.416;2023-07-22T13:42:39;38.20;;;5.93;;
33150;SDS011;19508;42.578;23.416;2023-07-22T13:45:05;35.83;;;5.97;;
33150;SDS011;19508;42.578;23.416;2023-07-22T13:47:31;45.58;;;6.53;;
33150;SDS011;19508;42.578;23.416;2023-07-22T13:49:56;27.35;;;5.55;;
33150;SDS011;19508;42.578;23.416;2023-07-22T13:52:22;29.08;;;6.82;;
33150;SDS011;19508;42.578;23.416;2023-07-22T13:54:47;46.75;;;6.63;;
33150;SDS011;19508;42.578;23.416;2023-07-22T13:57:13;37.22;;;5.97;;
33150;SDS011;19508;42.578;23.416;2023-07-22T13:59:38;36.25;;;6.90;;
33150;SDS011;19508;42.578;23.416;2023-07-22T14:02:04;52.97;;;6.63;;
33150;SDS011;19508;42.578;23.416;2023-07-22T14:04:30;32.00;;;6.13;;
33150;SDS011;19508;42.578;23.416;2023-07-22T14:06:55;49.80;;;7.10;;
33150;SDS011;19508;42.578;23.416;2023-07-22T14:09:21;31.60;;;6.82;;
33150;SDS011;19508;42.578;23.416;2023-07-22T14:11:46;31.13;;;6.03;;
33150;SDS011;19508;42.578;23.416;2023-07-22T14:14:12;50.65;;;6.72;;
33150;SDS011;19508;42.578;23.416;2023-07-22T14:16:37;43.83;;;5.95;;
33150;SDS011;19508;42.578;23.416;2023-07-22T14:19:02;42.00;;;6.63;;
33150;SDS011;19508;42.578;23.416;2023-07-22T14:21:28;41.78;;;6.40;;
33150;SDS011;19508;42.578;23.416;2023-07-22T14:23:53;34.40;;;6.85;;
33150;SDS011;19508;42.578;23.416;2023-07-22T14:26:20;52.30;;;7.18;;
33150;SDS011;19508;42.578;23.416;2023-07-22T14:28:45;31.73;;;6.35;;
33150;SDS011;19508;42.578;23.416;2023-07-22T14:31:11;46.22;;;7.13;;
33150;SDS011;19508;42.578;23.416;2023-07-22T14:33:37;30.25;;;6.70;;
33150;SDS011;19508;42.578;23.416;2023-07-22T14:36:05;36.83;;;6.45;;
33150;SDS011;19508;42.578;23.416;2023-07-22T14:38:30;37.22;;;6.07;;
33150;SDS011;19508;42.578;23.416;2023-07-22T14:40:57;52.25;;;6.78;;
33150;SDS011;19508;42.578;23.416;2023-07-22T14:43:22;48.63;;;6.82;;